Airport Name : Hilo Intl

Other Name : Hilo Intl

ICAO : PHTO

IATA : ITO

FAA : PITO

Latitude : 19.721375

Longitude : -155.048469

Country : United States

Local Date and Time : 29 Nov 2020 06:11

 

TAF (Terminal Aerodrome Forecast)

PHTO 291122Z 2912/3012 23005KT P6SM VCSH SCT025 BKN050 FM292000 02010KT P6SM VCSH SCT025 BKN050 FM300500 24006KT P6SM VCSH SCT025 BKN035

 

METAR (METeorological Aerodrome Report)

PHTO 291553Z 25005KT 10SM SCT055 SCT080 20/17 A3002 RMK AO2 RAE07B29E42 SLP165 P0001 T02000172

PHTO 291453Z AUTO 00000KT 10SM -RA FEW041 SCT075 BKN090 19/16 A3001 RMK AO2 RAB45 SLP161 P0000 60000 T01940161 53002 TSNO

PHTO 291353Z AUTO 22003KT 10SM CLR 19/15 A2999 RMK AO2 SLP155 T01890150 TSNO

PHTO 291253Z AUTO 17003KT 10SM SCT085 19/16 A3000 RMK AO2 SLP156 T01940161 TSNO

To Charter a Jet Click here.